Time;durP1;ratioP1;P1;durP2;ratioP2;P2;SDS_P1;SDS_P2;PMS_P1;PMS_P2;Temp;Humidity;BMP_temperature;BMP_pressure;BME280_temperature;BME280_humidity;BME280_pressure;Samples;Min_cycle;Max_cycle;Signal;HPM_P1;HPM_P2
2022/05/29 00:01:07;;;;;;;0.10;0.10;;;;;;;;;;4196369;28;20060;-37
2022/05/29 00:03:08;;;;;;;0.10;0.00;;;;;;;;;;4195941;28;20052;-40
2022/05/29 00:05:10;;;;;;;0.08;0.08;;;;;;;;;;4180936;28;20106;-41
2022/05/29 00:07:13;;;;;;;0.10;0.10;;;;;;;;;;4179612;28;20055;-40
2022/05/29 00:09:17;;;;;;;0.10;0.10;;;;;;;;;;4179850;28;20095;-38
2022/05/29 00:11:18;;;;;;;0.10;0.10;;;;;;;;;;4179692;28;20045;-35
2022/05/29 00:13:20;;;;;;;0.00;0.00;;;;;;;;;;4179750;28;20081;-40
2022/05/29 00:15:20;;;;;;;0.10;0.10;;;;;;;;;;4179444;28;20078;-40
2022/05/29 00:17:22;;;;;;;0.10;0.10;;;;;;;;;;4179988;28;20536;-39
2022/05/29 00:19:23;;;;;;;0.10;0.10;;;;;;;;;;4179335;28;20378;-40
2022/05/29 00:21:24;;;;;;;0.10;0.10;;;;;;;;;;4179886;28;20136;-39
2022/05/29 00:23:26;;;;;;;0.10;0.10;;;;;;;;;;4179605;28;20087;-41
2022/05/29 00:25:28;;;;;;;0.10;0.10;;;;;;;;;;4183352;28;20053;-40
2022/05/29 00:27:28;;;;;;;0.00;0.00;;;;;;;;;;4194538;28;20086;-40
2022/05/29 00:29:29;;;;;;;0.10;0.10;;;;;;;;;;4195521;28;20121;-40
2022/05/29 00:31:30;;;;;;;0.20;0.20;;;;;;;;;;4196081;28;20051;-39
2022/05/29 00:33:31;;;;;;;0.10;0.10;;;;;;;;;;4195971;28;20040;-40
2022/05/29 00:35:32;;;;;;;0.10;0.10;;;;;;;;;;4196250;28;20080;-40
2022/05/29 00:37:35;;;;;;;0.10;0.10;;;;;;;;;;4195929;28;20052;-39
2022/05/29 00:39:36;;;;;;;0.10;0.10;;;;;;;;;;4184587;28;20045;-41
2022/05/29 00:41:39;;;;;;;0.10;0.10;;;;;;;;;;4179222;28;20049;-40
2022/05/29 00:43:39;;;;;;;0.10;0.10;;;;;;;;;;4179715;28;20053;-39
2022/05/29 00:45:51;;;;;;;0.20;0.20;;;;;;;;;;4179346;28;20499;-40
2022/05/29 00:47:52;;;;;;;0.30;0.10;;;;;;;;;;4186773;28;20504;-40
2022/05/29 00:49:53;;;;;;;0.00;0.00;;;;;;;;;;4189186;28;20049;-39
2022/05/29 00:51:58;;;;;;;0.15;0.10;;;;;;;;;;4179414;28;20481;-40
2022/05/29 00:53:59;;;;;;;0.10;0.10;;;;;;;;;;4179641;28;20052;-40
2022/05/29 00:56:01;;;;;;;0.22;0.00;;;;;;;;;;4179612;28;20392;-39
2022/05/29 00:58:03;;;;;;;0.10;0.10;;;;;;;;;;4212996;28;20053;-40
2022/05/29 01:00:12;;;;;;;0.15;0.13;;;;;;;;;;4182069;28;20059;-39
2022/05/29 01:02:14;;;;;;;0.17;0.15;;;;;;;;;;4182494;28;20048;-41
2022/05/29 01:04:15;;;;;;;0.10;0.10;;;;;;;;;;4182280;28;20056;-38
2022/05/29 01:06:16;;;;;;;0.35;0.10;;;;;;;;;;4186812;28;20045;-40
2022/05/29 01:08:21;;;;;;;0.10;0.10;;;;;;;;;;4182394;28;20053;-41
2022/05/29 01:10:25;;;;;;;0.10;0.10;;;;;;;;;;4182355;28;20045;-38
2022/05/29 01:12:37;;;;;;;0.10;0.10;;;;;;;;;;4182561;28;20053;-41
2022/05/29 01:14:38;;;;;;;0.28;0.20;;;;;;;;;;4182241;28;20056;-40
2022/05/29 01:16:48;;;;;;;0.15;0.10;;;;;;;;;;4182755;28;20076;-40
2022/05/29 01:18:49;;;;;;;0.55;0.10;;;;;;;;;;4182383;28;20531;-37
2022/05/29 01:20:51;;;;;;;0.10;0.10;;;;;;;;;;4182391;28;20503;-40
2022/05/29 01:23:07;;;;;;;0.17;0.10;;;;;;;;;;4182437;28;20110;-39
2022/05/29 01:25:08;;;;;;;0.15;0.10;;;;;;;;;;4182189;28;20052;-39
2022/05/29 01:27:20;;;;;;;0.10;0.10;;;;;;;;;;4181214;28;20049;-39
2022/05/29 01:29:30;;;;;;;0.20;0.10;;;;;;;;;;4181838;28;20079;-40
2022/05/29 01:31:30;;;;;;;0.10;0.10;;;;;;;;;;4182188;28;20079;-40
2022/05/29 01:33:37;;;;;;;0.20;0.20;;;;;;;;;;4181973;28;20049;-41
2022/05/29 01:35:44;;;;;;;0.30;0.10;;;;;;;;;;4182238;28;20463;-41
2022/05/29 01:37:55;;;;;;;0.10;0.10;;;;;;;;;;4182113;28;20430;-41
2022/05/29 01:40:09;;;;;;;0.00;0.00;;;;;;;;;;4191027;28;20078;-39
2022/05/29 01:42:14;;;;;;;0.10;0.10;;;;;;;;;;4197018;28;20114;-41
2022/05/29 01:44:22;;;;;;;0.13;0.13;;;;;;;;;;4198186;28;20397;-41
2022/05/29 01:46:26;;;;;;;0.10;0.10;;;;;;;;;;4198292;28;20048;-41
2022/05/29 01:48:27;;;;;;;0.00;0.00;;;;;;;;;;4198324;28;20044;-37
2022/05/29 01:50:31;;;;;;;0.10;0.10;;;;;;;;;;4198333;28;20093;-37
2022/05/29 01:52:38;;;;;;;0.10;0.10;;;;;;;;;;4194612;28;20504;-38
2022/05/29 01:55:09;;;;;;;0.10;0.10;;;;;;;;;;4187766;28;20078;-40
2022/05/29 01:57:16;;;;;;;0.10;0.10;;;;;;;;;;4189044;28;20098;-41
2022/05/29 01:59:22;;;;;;;0.10;0.10;;;;;;;;;;4197681;28;20048;-40
2022/05/29 02:01:26;;;;;;;0.10;0.10;;;;;;;;;;4165426;28;20552;-36
2022/05/29 02:03:33;;;;;;;0.10;0.10;;;;;;;;;;4164866;28;20448;-40
2022/05/29 02:05:36;;;;;;;0.10;0.10;;;;;;;;;;4163784;28;20056;-41
2022/05/29 02:07:49;;;;;;;0.10;0.10;;;;;;;;;;4164979;28;20486;-38
2022/05/29 02:09:56;;;;;;;0.20;0.20;;;;;;;;;;4163866;28;20052;-39
2022/05/29 02:11:59;;;;;;;0.10;0.10;;;;;;;;;;4164991;28;20115;-38
2022/05/29 02:14:03;;;;;;;0.08;0.08;;;;;;;;;;4164644;28;20053;-40
2022/05/29 02:16:07;;;;;;;0.20;0.20;;;;;;;;;;4164890;28;20045;-41
2022/05/29 02:18:12;;;;;;;0.10;0.10;;;;;;;;;;4164995;28;20108;-36
2022/05/29 02:20:13;;;;;;;0.40;0.13;;;;;;;;;;4164692;28;20061;-39
2022/05/29 02:22:17;;;;;;;0.03;0.03;;;;;;;;;;4164787;28;20056;-39
2022/05/29 02:24:20;;;;;;;0.10;0.10;;;;;;;;;;4164818;28;20053;-41
2022/05/29 02:26:23;;;;;;;0.25;0.13;;;;;;;;;;4166922;28;20087;-38
2022/05/29 02:28:27;;;;;;;0.10;0.10;;;;;;;;;;4182254;28;20057;-41
2022/05/29 02:30:47;;;;;;;0.10;0.10;;;;;;;;;;4181449;28;20446;-41
2022/05/29 02:33:07;;;;;;;0.10;0.10;;;;;;;;;;4191875;28;20056;-39
2022/05/29 02:35:11;;;;;;;0.10;0.10;;;;;;;;;;4179056;28;20114;-36
2022/05/29 02:37:27;;;;;;;0.20;0.10;;;;;;;;;;4178782;28;20080;-37
2022/05/29 02:39:40;;;;;;;0.10;0.10;;;;;;;;;;4178621;28;20509;-40
2022/05/29 02:41:59;;;;;;;0.10;0.10;;;;;;;;;;4179042;28;20393;-37
2022/05/29 02:44:12;;;;;;;0.10;0.10;;;;;;;;;;4178499;28;20063;-36
2022/05/29 02:46:37;;;;;;;0.10;0.10;;;;;;;;;;4189362;28;20516;-37
2022/05/29 02:48:38;;;;;;;0.10;0.10;;;;;;;;;;4195022;28;20110;-39
2022/05/29 02:50:58;;;;;;;0.10;0.10;;;;;;;;;;4197164;28;20189;-41
2022/05/29 02:53:01;;;;;;;0.15;0.10;;;;;;;;;;4197537;28;20049;-39
2022/05/29 02:55:02;;;;;;;0.10;0.10;;;;;;;;;;4197320;28;20041;-39
2022/05/29 02:57:03;;;;;;;0.10;0.10;;;;;;;;;;4197482;28;20155;-39
2022/05/29 02:59:04;;;;;;;0.10;0.10;;;;;;;;;;4196699;28;20096;-41
2022/05/29 03:01:11;;;;;;;0.00;0.00;;;;;;;;;;4179186;28;20127;-40
2022/05/29 03:03:18;;;;;;;0.32;0.10;;;;;;;;;;4185729;28;20068;-38
2022/05/29 03:05:21;;;;;;;0.10;0.10;;;;;;;;;;4161184;28;20057;-39
2022/05/29 03:07:41;;;;;;;0.10;0.10;;;;;;;;;;4161522;28;20544;-37
2022/05/29 03:09:42;;;;;;;;;;;;;;;;;;4162547;28;20386;-38
2022/05/29 03:11:44;;;;;;;0.10;0.10;;;;;;;;;;4161678;28;20003;-39
2022/05/29 03:13:51;;;;;;;0.10;0.10;;;;;;;;;;4160263;28;20394;-41
2022/05/29 03:16:11;;;;;;;0.00;0.00;;;;;;;;;;4182383;28;20551;-37
2022/05/29 03:18:21;;;;;;;0.10;0.10;;;;;;;;;;4197014;28;20121;-39
2022/05/29 03:20:34;;;;;;;0.10;0.10;;;;;;;;;;4196697;28;20049;-41
2022/05/29 03:22:35;;;;;;;0.08;0.08;;;;;;;;;;4196991;28;20094;-41
2022/05/29 03:24:42;;;;;;;0.10;0.10;;;;;;;;;;4196678;28;20048;-41
2022/05/29 03:27:01;;;;;;;0.10;0.10;;;;;;;;;;4196865;28;20040;-37
2022/05/29 03:29:08;;;;;;;0.10;0.10;;;;;;;;;;4196301;28;20048;-40
2022/05/29 03:31:18;;;;;;;0.10;0.10;;;;;;;;;;4196895;28;20052;-39
2022/05/29 03:33:19;;;;;;;;;;;;;;;;;;4193872;28;20048;-40
2022/05/29 03:35:25;;;;;;;0.20;0.20;;;;;;;;;;4187569;28;19920;-39
2022/05/29 03:37:26;;;;;;;0.10;0.10;;;;;;;;;;4196569;28;20371;-39
2022/05/29 03:39:27;;;;;;;0.10;0.10;;;;;;;;;;4185975;28;20060;-40
2022/05/29 03:41:44;;;;;;;0.10;0.10;;;;;;;;;;4179913;28;20048;-39
2022/05/29 03:43:45;;;;;;;0.10;0.10;;;;;;;;;;4179405;28;20071;-40
2022/05/29 03:45:46;;;;;;;0.20;0.20;;;;;;;;;;4180063;28;20099;-40
2022/05/29 03:47:47;;;;;;;0.30;0.10;;;;;;;;;;4179975;28;20080;-39
2022/05/29 03:49:48;;;;;;;0.25;0.10;;;;;;;;;;4179736;28;20053;-36
2022/05/29 03:51:48;;;;;;;0.57;0.10;;;;;;;;;;4211948;28;20048;-37
2022/05/29 03:53:49;;;;;;;0.20;0.10;;;;;;;;;;4179828;28;20276;-41
2022/05/29 03:55:51;;;;;;;0.20;0.13;;;;;;;;;;4179756;28;20048;-40
2022/05/29 03:57:52;;;;;;;0.10;0.10;;;;;;;;;;4178647;28;20087;-39
2022/05/29 03:59:53;;;;;;;0.10;0.10;;;;;;;;;;4179336;28;20106;-40
2022/05/29 04:01:55;;;;;;;0.10;0.10;;;;;;;;;;4180097;28;20045;-40
2022/05/29 04:03:55;;;;;;;0.10;0.10;;;;;;;;;;4179457;28;20103;-41
2022/05/29 04:05:56;;;;;;;0.13;0.10;;;;;;;;;;4179760;28;20091;-41
2022/05/29 04:12:36;;;;;;;0.17;0.17;;;;;;;;;;4179710;28;20044;-35
2022/05/29 04:14:39;;;;;;;0.05;0.05;;;;;;;;;;4178992;28;20080;-39
2022/05/29 04:16:40;;;;;;;0.10;0.10;;;;;;;;;;4179554;28;20052;-38
2022/05/29 04:18:41;;;;;;;0.10;0.10;;;;;;;;;;4179362;28;20067;-37
2022/05/29 04:20:42;;;;;;;0.10;0.10;;;;;;;;;;4179674;28;20546;-39
2022/05/29 04:22:43;;;;;;;0.10;0.10;;;;;;;;;;4179381;28;20110;-38
2022/05/29 04:24:45;;;;;;;0.40;0.30;;;;;;;;;;4179775;28;20528;-41
2022/05/29 04:26:49;;;;;;;0.10;0.10;;;;;;;;;;4179318;28;20493;-39
2022/05/29 04:28:50;;;;;;;0.20;0.10;;;;;;;;;;4179084;28;20049;-41
2022/05/29 04:30:51;;;;;;;0.10;0.10;;;;;;;;;;4179651;28;20107;-41
2022/05/29 04:33:00;;;;;;;0.03;0.03;;;;;;;;;;4183143;28;20447;-41
2022/05/29 04:35:01;;;;;;;0.10;0.10;;;;;;;;;;4184875;28;20044;-37
2022/05/29 04:37:03;;;;;;;0.10;0.10;;;;;;;;;;4184999;28;20092;-39
2022/05/29 04:39:04;;;;;;;0.15;0.10;;;;;;;;;;4184587;28;20060;-38
2022/05/29 04:41:06;;;;;;;0.10;0.10;;;;;;;;;;4185082;28;20414;-36
2022/05/29 04:43:07;;;;;;;0.10;0.10;;;;;;;;;;4200113;28;20097;-39
2022/05/29 04:45:08;;;;;;;0.17;0.17;;;;;;;;;;4184297;28;20497;-39
2022/05/29 04:47:09;;;;;;;0.22;0.03;;;;;;;;;;4185049;28;20049;-40
2022/05/29 04:49:10;;;;;;;0.10;0.10;;;;;;;;;;4184513;28;20542;-40
2022/05/29 04:51:11;;;;;;;0.10;0.10;;;;;;;;;;4184810;28;20052;-41
2022/05/29 04:53:12;;;;;;;0.80;0.10;;;;;;;;;;4184676;28;20080;-39
2022/05/29 04:55:13;;;;;;;0.00;0.00;;;;;;;;;;4184591;28;20053;-39
2022/05/29 04:57:14;;;;;;;0.00;0.00;;;;;;;;;;4184673;28;20095;-38
2022/05/29 04:59:15;;;;;;;0.10;0.10;;;;;;;;;;4184268;28;20056;-41
2022/05/29 05:01:16;;;;;;;0.10;0.10;;;;;;;;;;4184576;28;20394;-41
2022/05/29 05:03:17;;;;;;;0.00;0.00;;;;;;;;;;4184654;28;20118;-41
2022/05/29 05:05:18;;;;;;;0.10;0.10;;;;;;;;;;4184469;28;20450;-41
2022/05/29 05:07:20;;;;;;;0.10;0.10;;;;;;;;;;4184787;28;20044;-34
2022/05/29 05:09:21;;;;;;;0.10;0.10;;;;;;;;;;4184323;28;20053;-39
2022/05/29 05:11:22;;;;;;;0.20;0.10;;;;;;;;;;4184815;28;20374;-39
2022/05/29 05:13:23;;;;;;;0.13;0.13;;;;;;;;;;4184795;28;20048;-39
2022/05/29 05:15:24;;;;;;;0.30;0.10;;;;;;;;;;4184263;28;20136;-38
2022/05/29 05:17:26;;;;;;;0.10;0.10;;;;;;;;;;4184569;28;20436;-37
2022/05/29 05:19:27;;;;;;;0.43;0.43;;;;;;;;;;4184414;28;20143;-39
2022/05/29 05:21:27;;;;;;;0.00;0.00;;;;;;;;;;4184960;28;20107;-41
2022/05/29 05:23:28;;;;;;;0.15;0.10;;;;;;;;;;4184503;28;20055;-37
2022/05/29 05:25:29;;;;;;;0.10;0.10;;;;;;;;;;4184692;28;20102;-38
2022/05/29 05:27:30;;;;;;;0.10;0.10;;;;;;;;;;4184572;28;20056;-38
2022/05/29 05:29:32;;;;;;;0.10;0.10;;;;;;;;;;4184250;28;20045;-39
2022/05/29 05:31:32;;;;;;;0.20;0.10;;;;;;;;;;4184557;28;20448;-37
2022/05/29 05:33:33;;;;;;;0.15;0.15;;;;;;;;;;4184477;28;20163;-40
2022/05/29 05:35:34;;;;;;;0.10;0.10;;;;;;;;;;4184465;28;20056;-41
2022/05/29 05:37:36;;;;;;;0.30;0.10;;;;;;;;;;4184688;28;20102;-40
2022/05/29 05:39:37;;;;;;;0.13;0.13;;;;;;;;;;4184315;28;20044;-40
2022/05/29 05:41:38;;;;;;;0.08;0.08;;;;;;;;;;4184636;28;20048;-36
2022/05/29 05:43:40;;;;;;;0.00;0.00;;;;;;;;;;4183784;28;20095;-40
2022/05/29 05:45:41;;;;;;;0.20;0.20;;;;;;;;;;4181429;28;20044;-41
2022/05/29 05:47:42;;;;;;;0.28;0.10;;;;;;;;;;4182089;28;20053;-39
2022/05/29 05:49:43;;;;;;;0.17;0.10;;;;;;;;;;4181459;28;20102;-40
2022/05/29 05:51:44;;;;;;;0.15;0.15;;;;;;;;;;4181709;28;20113;-41
2022/05/29 05:53:46;;;;;;;0.20;0.20;;;;;;;;;;4181542;28;20404;-38
2022/05/29 05:55:46;;;;;;;0.10;0.10;;;;;;;;;;4181770;28;20040;-41
2022/05/29 05:57:47;;;;;;;0.08;0.08;;;;;;;;;;4197226;28;20044;-38
2022/05/29 05:59:48;;;;;;;0.00;0.00;;;;;;;;;;4181314;28;20477;-40
2022/05/29 06:01:49;;;;;;;0.13;0.13;;;;;;;;;;4181911;28;20075;-40
2022/05/29 06:03:50;;;;;;;0.10;0.10;;;;;;;;;;4181428;28;20056;-37
2022/05/29 06:05:51;;;;;;;0.00;0.00;;;;;;;;;;4181301;28;20053;-40
2022/05/29 06:07:53;;;;;;;0.10;0.10;;;;;;;;;;4181636;28;20739;-40
2022/05/29 06:09:53;;;;;;;0.10;0.10;;;;;;;;;;4180164;28;20049;-40
2022/05/29 06:11:55;;;;;;;0.10;0.10;;;;;;;;;;4181519;28;20091;-38
2022/05/29 06:13:56;;;;;;;0.00;0.00;;;;;;;;;;4180910;28;20400;-40
2022/05/29 06:16:03;;;;;;;0.10;0.10;;;;;;;;;;4181362;28;20092;-41
2022/05/29 06:18:04;;;;;;;0.10;0.10;;;;;;;;;;4196599;28;20053;-39
2022/05/29 06:20:07;;;;;;;0.03;0.03;;;;;;;;;;4181042;28;20056;-41
2022/05/29 06:22:08;;;;;;;0.10;0.10;;;;;;;;;;4181253;28;20053;-39
2022/05/29 06:24:09;;;;;;;0.10;0.10;;;;;;;;;;4181378;28;20053;-35
2022/05/29 06:26:13;;;;;;;0.03;0.03;;;;;;;;;;4181172;28;20745;-38
2022/05/29 06:28:14;;;;;;;0.10;0.10;;;;;;;;;;4181061;28;20049;-41
2022/05/29 06:30:16;;;;;;;0.10;0.10;;;;;;;;;;4180709;28;20529;-37
2022/05/29 06:32:17;;;;;;;0.10;0.10;;;;;;;;;;4181160;28;20545;-38
2022/05/29 06:34:18;;;;;;;0.10;0.10;;;;;;;;;;4181320;28;20139;-38
2022/05/29 06:36:21;;;;;;;0.20;0.20;;;;;;;;;;4180722;28;20202;-39
2022/05/29 06:38:23;;;;;;;0.10;0.10;;;;;;;;;;4179545;28;20086;-40
2022/05/29 06:40:23;;;;;;;0.10;0.10;;;;;;;;;;4180748;28;20451;-39
2022/05/29 06:42:25;;;;;;;0.05;0.05;;;;;;;;;;4181040;28;20063;-38
2022/05/29 06:44:26;;;;;;;0.10;0.10;;;;;;;;;;4180431;28;20049;-37
2022/05/29 06:46:27;;;;;;;0.00;0.00;;;;;;;;;;4179695;28;20111;-40
2022/05/29 06:48:29;;;;;;;0.10;0.10;;;;;;;;;;4179648;28;20045;-39
2022/05/29 06:50:30;;;;;;;0.10;0.10;;;;;;;;;;4180547;28;20068;-39
2022/05/29 06:52:32;;;;;;;0.10;0.10;;;;;;;;;;4180764;28;20087;-41
2022/05/29 06:54:33;;;;;;;0.10;0.10;;;;;;;;;;4180876;28;20049;-39
2022/05/29 06:56:35;;;;;;;0.08;0.08;;;;;;;;;;4180294;28;20052;-41
2022/05/29 06:58:36;;;;;;;0.00;0.00;;;;;;;;;;4180665;28;20415;-40
2022/05/29 07:07:33;;;;;;;1.35;0.10;;;;;;;;;;4180575;28;20520;-40
2022/05/29 07:09:36;;;;;;;0.10;0.10;;;;;;;;;;4178951;28;20131;-41
2022/05/29 07:11:39;;;;;;;0.13;0.13;;;;;;;;;;4180568;28;20436;-38
2022/05/29 07:13:40;;;;;;;0.10;0.10;;;;;;;;;;4180359;28;20041;-39
2022/05/29 07:15:41;;;;;;;0.10;0.10;;;;;;;;;;4180296;28;20126;-41
2022/05/29 07:17:43;;;;;;;0.25;0.20;;;;;;;;;;4180310;28;20045;-41
2022/05/29 07:19:45;;;;;;;0.10;0.10;;;;;;;;;;4180245;28;20057;-41
2022/05/29 07:21:46;;;;;;;0.10;0.10;;;;;;;;;;4180468;28;20048;-40
2022/05/29 07:23:47;;;;;;;0.08;0.08;;;;;;;;;;4178941;28;20049;-40
2022/05/29 07:25:48;;;;;;;0.20;0.10;;;;;;;;;;4179741;28;20053;-41
2022/05/29 07:27:49;;;;;;;0.10;0.10;;;;;;;;;;4179758;28;20049;-41
2022/05/29 07:29:50;;;;;;;0.10;0.10;;;;;;;;;;4179674;28;20090;-40
2022/05/29 07:31:52;;;;;;;0.08;0.00;;;;;;;;;;4180093;28;20095;-38
2022/05/29 07:33:53;;;;;;;0.10;0.10;;;;;;;;;;4180153;28;20049;-39
2022/05/29 07:35:54;;;;;;;0.10;0.10;;;;;;;;;;4180059;28;20049;-40
2022/05/29 07:37:56;;;;;;;0.10;0.10;;;;;;;;;;4180115;28;20223;-38
2022/05/29 07:39:57;;;;;;;0.10;0.10;;;;;;;;;;4180002;28;20049;-38
2022/05/29 07:44:17;;;;;;;0.10;0.10;;;;;;;;;;4179595;28;20409;-39
2022/05/29 07:46:18;;;;;;;0.10;0.10;;;;;;;;;;4179846;28;20045;-40
2022/05/29 07:48:20;;;;;;;0.00;0.00;;;;;;;;;;4168868;28;20084;-40
2022/05/29 07:50:21;;;;;;;0.10;0.10;;;;;;;;;;4161561;28;20053;-39
2022/05/29 07:52:22;;;;;;;0.10;0.10;;;;;;;;;;4160362;28;20045;-37
2022/05/29 07:54:25;;;;;;;0.00;0.00;;;;;;;;;;4161091;28;20095;-38
2022/05/29 07:56:27;;;;;;;0.10;0.10;;;;;;;;;;4161472;28;20075;-40
2022/05/29 07:58:27;;;;;;;0.10;0.10;;;;;;;;;;4161501;28;20485;-40
2022/05/29 08:00:28;;;;;;;0.10;0.10;;;;;;;;;;4170000;28;20659;-37
2022/05/29 08:02:34;;;;;;;0.57;0.10;;;;;;;;;;4176113;28;20512;-41
2022/05/29 08:04:35;;;;;;;0.10;0.10;;;;;;;;;;4177930;28;20057;-40
2022/05/29 08:06:37;;;;;;;0.10;0.10;;;;;;;;;;4192634;28;20048;-41
2022/05/29 08:08:38;;;;;;;0.10;0.10;;;;;;;;;;4177002;28;20111;-40
2022/05/29 08:10:40;;;;;;;0.20;0.20;;;;;;;;;;4177460;28;20409;-40
2022/05/29 08:12:41;;;;;;;0.10;0.10;;;;;;;;;;4177190;28;20493;-40
2022/05/29 08:14:42;;;;;;;0.10;0.10;;;;;;;;;;4176903;28;20079;-39
2022/05/29 08:16:43;;;;;;;0.10;0.10;;;;;;;;;;4176092;28;20081;-39
2022/05/29 08:18:44;;;;;;;0.00;0.00;;;;;;;;;;4192692;28;20098;-38
2022/05/29 08:20:45;;;;;;;0.10;0.10;;;;;;;;;;4177595;28;20106;-39
2022/05/29 08:22:46;;;;;;;0.00;0.00;;;;;;;;;;4177598;28;20110;-38
2022/05/29 08:31:45;;;;;;;0.10;0.10;;;;;;;;;;4177579;28;20052;-39
2022/05/29 08:33:47;;;;;;;0.00;0.00;;;;;;;;;;4177573;28;20499;-41
2022/05/29 08:35:49;;;;;;;0.00;0.00;;;;;;;;;;4179150;28;20067;-38
2022/05/29 08:37:50;;;;;;;0.03;0.03;;;;;;;;;;4196005;28;20504;-38
2022/05/29 08:39:51;;;;;;;0.00;0.00;;;;;;;;;;4196140;28;20081;-40
2022/05/29 08:41:53;;;;;;;0.05;0.05;;;;;;;;;;4195803;28;20113;-38
2022/05/29 08:43:56;;;;;;;0.10;0.10;;;;;;;;;;4195604;28;20056;-41
2022/05/29 08:46:00;;;;;;;0.10;0.10;;;;;;;;;;4195803;28;20045;-39
2022/05/29 08:48:02;;;;;;;0.88;0.20;;;;;;;;;;4195829;28;20629;-40
2022/05/29 08:50:03;;;;;;;0.10;0.10;;;;;;;;;;4195523;28;20632;-40
2022/05/29 08:52:08;;;;;;;0.10;0.10;;;;;;;;;;4195847;28;20094;-37
2022/05/29 08:54:11;;;;;;;0.10;0.10;;;;;;;;;;4194470;28;20090;-39
2022/05/29 08:56:17;;;;;;;0.10;0.10;;;;;;;;;;4195697;28;20174;-40
2022/05/29 08:58:19;;;;;;;0.00;0.00;;;;;;;;;;4195883;28;20467;-37
2022/05/29 09:00:38;;;;;;;0.10;0.10;;;;;;;;;;4195424;28;20094;-39
2022/05/29 09:02:49;;;;;;;0.00;0.00;;;;;;;;;;4195556;28;20109;-38
2022/05/29 09:04:53;;;;;;;0.10;0.10;;;;;;;;;;4183831;28;20455;-39
2022/05/29 09:06:55;;;;;;;0.10;0.10;;;;;;;;;;4179317;28;20053;-40
2022/05/29 09:09:01;;;;;;;0.05;0.05;;;;;;;;;;4179023;28;20094;-40
2022/05/29 09:11:06;;;;;;;0.00;0.00;;;;;;;;;;4179177;28;20049;-41
2022/05/29 09:13:19;;;;;;;0.65;0.22;;;;;;;;;;4179198;28;20095;-39
2022/05/29 09:15:46;;;;;;;0.00;0.00;;;;;;;;;;4178605;28;20477;-38
2022/05/29 09:17:49;;;;;;;0.10;0.10;;;;;;;;;;4177924;28;20044;-39
2022/05/29 09:19:56;;;;;;;0.10;0.10;;;;;;;;;;4181887;28;20044;-37
2022/05/29 09:22:10;;;;;;;0.10;0.10;;;;;;;;;;4182234;28;20463;-41
2022/05/29 09:24:18;;;;;;;0.08;0.08;;;;;;;;;;4182158;28;20049;-41
2022/05/29 09:26:19;;;;;;;0.10;0.10;;;;;;;;;;4182373;28;20048;-40
2022/05/29 09:28:24;;;;;;;0.10;0.10;;;;;;;;;;4182212;28;20078;-41
2022/05/29 09:30:24;;;;;;;0.10;0.10;;;;;;;;;;4181810;28;20049;-39
2022/05/29 09:32:28;;;;;;;0.22;0.10;;;;;;;;;;4214025;28;20043;-40
2022/05/29 09:34:29;;;;;;;0.00;0.00;;;;;;;;;;4182048;28;20503;-41
2022/05/29 09:36:36;;;;;;;0.10;0.10;;;;;;;;;;4181781;28;20076;-40
2022/05/29 09:38:42;;;;;;;0.00;0.00;;;;;;;;;;4181998;28;20044;-40
2022/05/29 09:40:54;;;;;;;0.10;0.10;;;;;;;;;;4181937;28;20515;-41
2022/05/29 09:42:55;;;;;;;0.10;0.10;;;;;;;;;;4181902;28;20049;-37
2022/05/29 09:45:02;;;;;;;0.10;0.10;;;;;;;;;;4181738;28;20056;-39
2022/05/29 09:49:41;;;;;;;0.10;0.10;;;;;;;;;;4180616;28;20067;-37
2022/05/29 09:51:42;;;;;;;;;;;;;;;;;;4182558;28;20053;-41
2022/05/29 09:53:48;;;;;;;0.00;0.00;;;;;;;;;;4181608;28;19928;-41
2022/05/29 09:56:00;;;;;;;0.10;0.10;;;;;;;;;;4180314;28;20053;-40
2022/05/29 09:58:03;;;;;;;0.22;0.00;;;;;;;;;;4180542;28;20044;-39
2022/05/29 10:00:08;;;;;;;0.10;0.10;;;;;;;;;;4181392;28;20090;-40
2022/05/29 10:02:22;;;;;;;0.10;0.10;;;;;;;;;;4181846;28;20048;-41
2022/05/29 10:04:29;;;;;;;0.10;0.10;;;;;;;;;;4181487;28;20057;-37
2022/05/29 10:06:30;;;;;;;0.10;0.10;;;;;;;;;;4181477;28;20060;-38
2022/05/29 10:08:31;;;;;;;0.10;0.10;;;;;;;;;;4181607;28;20056;-40
2022/05/29 10:10:33;;;;;;;0.20;0.10;;;;;;;;;;4181430;28;20056;-38
2022/05/29 10:12:39;;;;;;;0.08;0.08;;;;;;;;;;4181557;28;20110;-40
2022/05/29 10:14:41;;;;;;;0.10;0.10;;;;;;;;;;4179580;28;20484;-40
2022/05/29 10:16:42;;;;;;;0.10;0.10;;;;;;;;;;4181246;28;20102;-41
2022/05/29 10:18:43;;;;;;;0.10;0.10;;;;;;;;;;4181019;28;20052;-40
2022/05/29 10:20:44;;;;;;;0.00;0.00;;;;;;;;;;4181344;28;20397;-40
2022/05/29 10:22:45;;;;;;;0.30;0.10;;;;;;;;;;4181271;28;20140;-41
2022/05/29 10:24:47;;;;;;;0.10;0.10;;;;;;;;;;4181071;28;20504;-40
2022/05/29 10:26:53;;;;;;;0.20;0.10;;;;;;;;;;4181052;28;20373;-40
2022/05/29 10:28:54;;;;;;;0.10;0.10;;;;;;;;;;4180750;28;20049;-41
2022/05/29 10:30:54;;;;;;;0.10;0.10;;;;;;;;;;4180319;28;20541;-39
2022/05/29 10:33:03;;;;;;;0.10;0.10;;;;;;;;;;4181626;28;20048;-37
2022/05/29 10:35:09;;;;;;;0.10;0.10;;;;;;;;;;4181081;28;20040;-40
2022/05/29 10:37:34;;;;;;;0.03;0.03;;;;;;;;;;4181067;28;20393;-39
2022/05/29 10:39:35;;;;;;;0.00;0.00;;;;;;;;;;4180879;28;20053;-41
2022/05/29 10:41:38;;;;;;;0.10;0.10;;;;;;;;;;4180804;28;20061;-39
2022/05/29 10:43:44;;;;;;;0.10;0.10;;;;;;;;;;4180857;28;20060;-41
2022/05/29 10:45:46;;;;;;;0.05;0.05;;;;;;;;;;4181014;28;20052;-39
2022/05/29 10:47:56;;;;;;;0.10;0.10;;;;;;;;;;4180820;28;20107;-40
2022/05/29 10:50:01;;;;;;;0.10;0.10;;;;;;;;;;4180542;28;20102;-41
2022/05/29 10:52:04;;;;;;;0.10;0.10;;;;;;;;;;4181101;28;20045;-40
2022/05/29 10:54:25;;;;;;;0.00;0.00;;;;;;;;;;4180481;28;20041;-39
2022/05/29 10:56:26;;;;;;;0.10;0.10;;;;;;;;;;4180860;28;20125;-40
2022/05/29 10:58:27;;;;;;;0.10;0.10;;;;;;;;;;4180740;28;20122;-39
2022/05/29 11:00:33;;;;;;;0.10;0.10;;;;;;;;;;4180254;28;20053;-40
2022/05/29 11:05:00;;;;;;;0.00;0.00;;;;;;;;;;4180686;28;20078;-41
2022/05/29 11:07:12;;;;;;;0.10;0.10;;;;;;;;;;4180523;28;20045;-41
2022/05/29 11:09:51;;;;;;;0.10;0.10;;;;;;;;;;4180283;28;20053;-39
2022/05/29 11:12:04;;;;;;;0.10;0.10;;;;;;;;;;4161805;28;20045;-41
2022/05/29 11:14:20;;;;;;;0.13;0.13;;;;;;;;;;4161598;28;20159;-39
2022/05/29 11:16:30;;;;;;;0.10;0.10;;;;;;;;;;4164974;28;20049;-39
2022/05/29 11:18:31;;;;;;;;;;;;;;;;;;4180972;28;20049;-40
2022/05/29 11:20:41;;;;;;;0.08;0.08;;;;;;;;;;4180356;28;19916;-37
2022/05/29 11:22:48;;;;;;;0.00;0.00;;;;;;;;;;4180353;28;20409;-39
2022/05/29 11:24:52;;;;;;;0.20;0.10;;;;;;;;;;4180435;28;20044;-41
2022/05/29 11:27:02;;;;;;;0.10;0.10;;;;;;;;;;4180444;28;20161;-40
2022/05/29 11:29:18;;;;;;;0.10;0.10;;;;;;;;;;4179716;28;20111;-41
2022/05/29 11:31:30;;;;;;;0.05;0.05;;;;;;;;;;4180152;28;20047;-37
2022/05/29 11:33:42;;;;;;;0.10;0.10;;;;;;;;;;4180139;28;20064;-38
2022/05/29 11:36:02;;;;;;;0.20;0.10;;;;;;;;;;4180255;28;20448;-42
2022/05/29 11:38:02;;;;;;;;;;;;;;;;;;4180824;28;20045;-41
2022/05/29 11:40:09;;;;;;;0.00;0.00;;;;;;;;;;4180036;28;20506;-39
2022/05/29 11:42:10;;;;;;;0.00;0.00;;;;;;;;;;4180025;28;20439;-39
2022/05/29 11:44:19;;;;;;;0.00;0.00;;;;;;;;;;4179497;28;20048;-40
2022/05/29 11:51:10;;;;;;;0.10;0.10;;;;;;;;;;4180024;28;20049;-40
2022/05/29 11:53:30;;;;;;;0.32;0.10;;;;;;;;;;4179955;28;20528;-37
2022/05/29 11:55:35;;;;;;;0.05;0.05;;;;;;;;;;4179870;28;20095;-40
2022/05/29 11:57:44;;;;;;;0.00;0.00;;;;;;;;;;4179902;28;20049;-41
2022/05/29 12:00:03;;;;;;;0.10;0.10;;;;;;;;;;4179565;28;20053;-39
2022/05/29 12:02:15;;;;;;;0.00;0.00;;;;;;;;;;4179859;28;20052;-40
2022/05/29 12:04:30;;;;;;;0.00;0.00;;;;;;;;;;4179435;28;20052;-38
2022/05/29 12:06:33;;;;;;;0.00;0.00;;;;;;;;;;4179998;28;20049;-41
2022/05/29 12:08:52;;;;;;;0.10;0.10;;;;;;;;;;4179788;28;20057;-41
2022/05/29 12:11:06;;;;;;;0.10;0.10;;;;;;;;;;4179827;28;20056;-40
2022/05/29 12:13:10;;;;;;;0.00;0.00;;;;;;;;;;4179960;28;20408;-36
2022/05/29 12:15:19;;;;;;;0.10;0.10;;;;;;;;;;4179182;28;20106;-39
2022/05/29 12:17:28;;;;;;;0.10;0.10;;;;;;;;;;4179758;28;20451;-39
2022/05/29 12:19:31;;;;;;;0.10;0.10;;;;;;;;;;4179694;28;20040;-41
2022/05/29 12:21:39;;;;;;;0.00;0.00;;;;;;;;;;4179685;28;20061;-40
2022/05/29 12:23:43;;;;;;;0.00;0.00;;;;;;;;;;4179523;28;20095;-41
2022/05/29 12:25:44;;;;;;;0.00;0.00;;;;;;;;;;4179544;28;20131;-40
2022/05/29 12:27:45;;;;;;;0.10;0.10;;;;;;;;;;4179620;28;20069;-40
2022/05/29 12:29:54;;;;;;;0.10;0.10;;;;;;;;;;4179150;28;20122;-41
2022/05/29 12:31:57;;;;;;;0.32;0.13;;;;;;;;;;4179441;28;20554;-39
2022/05/29 12:33:58;;;;;;;0.10;0.10;;;;;;;;;;4179335;28;20041;-41
2022/05/29 12:36:06;;;;;;;0.10;0.10;;;;;;;;;;4179493;28;20098;-39
2022/05/29 12:38:16;;;;;;;0.00;0.00;;;;;;;;;;4179364;28;20400;-41
2022/05/29 12:40:17;;;;;;;0.10;0.10;;;;;;;;;;4162753;28;20067;-41
2022/05/29 12:42:33;;;;;;;0.10;0.10;;;;;;;;;;4162390;28;20551;-40
2022/05/29 12:44:40;;;;;;;0.00;0.00;;;;;;;;;;4160687;28;20089;-39
2022/05/29 12:46:53;;;;;;;0.03;0.03;;;;;;;;;;4161163;28;20107;-38
2022/05/29 12:49:18;;;;;;;0.10;0.10;;;;;;;;;;4160943;28;20049;-40
2022/05/29 12:51:38;;;;;;;0.10;0.10;;;;;;;;;;4160901;28;20057;-41
2022/05/29 12:53:58;;;;;;;0.00;0.00;;;;;;;;;;4161765;28;20099;-39
2022/05/29 12:56:18;;;;;;;0.10;0.10;;;;;;;;;;4164198;28;20489;-40
2022/05/29 12:58:35;;;;;;;0.00;0.00;;;;;;;;;;4164112;28;20457;-40
2022/05/29 13:00:49;;;;;;;0.10;0.10;;;;;;;;;;4176000;28;20080;-38